Main page
METAR-TAF:

METAR-TAF

Airports :

Zhengzhou Xinzheng International Airport

Zhengzhou, China

latitude: 34-43N, longitude: 113-39E, elevation: 111 m

Current weather observation

The report was made 39 minutes ago, at 17:00 UTC
Wind 2 kt from variable directions
Temperature 17°C
Humidity 94%
Pressure 1017 hPa
Visibility 10 km or more
no clouds below 1500 m and no cumulonimbus

METAR: ZHCC 271700Z VRB01MPS CAVOK 17/16 Q1017 NOSIG

Time: 01:39 (17:39 UTC)

Forecast

The report was made 8 hours and 31 minutes ago, at 09:08 UTC
Forecast valid from 27 at 12 UTC to 28 at 12 UTC
Wind 6 kt from the North/Northwest
Visibility: 5000 m
mist
Temporary
from 28 at 06 UTC to 28 at 12 UTC
Visibility: 3000 m
light rain

TAF: ZHCC 270908Z 2712/2812 33003MPS 5000 BR NSC TX25/2807Z TN16/2722Z TEMPO 2806/2812 3000 -RA

Weather observations and forecasts of more than 4000 airports (METAR and TAF reports).

The available stations are represented by yellow and red dots on the map.

Hover mouse over dot to see the name of the station.

Then click to see weather observations and forecasts.

To change the map : click on the green buttons with a black cross to zoom in, on the green button with a dash to zoom out, or on the green arrows for adjacent maps.


METAR-TAF: